sensor_id;sensor_type;location;lat;lon;timestamp;P1;durP1;ratioP1;P2;durP2;ratioP2
43070;SDS011;36278;47.952;21.714;2023-10-13T00:00:25;13.93;;;8.53;;
43070;SDS011;36278;47.952;21.714;2023-10-13T00:02:55;18.17;;;8.93;;
43070;SDS011;36278;47.952;21.714;2023-10-13T00:05:25;19.13;;;8.67;;
43070;SDS011;36278;47.952;21.714;2023-10-13T00:07:59;17.02;;;9.27;;
43070;SDS011;36278;47.952;21.714;2023-10-13T00:10:27;17.97;;;8.80;;
43070;SDS011;36278;47.952;21.714;2023-10-13T00:12:53;14.93;;;8.80;;
43070;SDS011;36278;47.952;21.714;2023-10-13T00:15:18;15.10;;;9.20;;
43070;SDS011;36278;47.952;21.714;2023-10-13T00:17:54;24.53;;;9.33;;
43070;SDS011;36278;47.952;21.714;2023-10-13T00:20:20;17.57;;;8.70;;
43070;SDS011;36278;47.952;21.714;2023-10-13T00:23:03;20.80;;;8.73;;
43070;SDS011;36278;47.952;21.714;2023-10-13T00:25:28;21.07;;;9.33;;
43070;SDS011;36278;47.952;21.714;2023-10-13T00:27:54;21.60;;;9.53;;
43070;SDS011;36278;47.952;21.714;2023-10-13T00:30:20;17.13;;;9.23;;
43070;SDS011;36278;47.952;21.714;2023-10-13T00:32:58;21.23;;;8.90;;
43070;SDS011;36278;47.952;21.714;2023-10-13T00:35:24;18.23;;;9.20;;
43070;SDS011;36278;47.952;21.714;2023-10-13T00:37:57;17.53;;;9.33;;
43070;SDS011;36278;47.952;21.714;2023-10-13T00:40:29;17.83;;;9.10;;
43070;SDS011;36278;47.952;21.714;2023-10-13T00:42:59;26.33;;;10.00;;
43070;SDS011;36278;47.952;21.714;2023-10-13T00:45:44;22.60;;;8.83;;
43070;SDS011;36278;47.952;21.714;2023-10-13T00:48:25;19.27;;;9.70;;
43070;SDS011;36278;47.952;21.714;2023-10-13T00:51:06;17.93;;;9.27;;
43070;SDS011;36278;47.952;21.714;2023-10-13T00:53:33;28.20;;;10.20;;
43070;SDS011;36278;47.952;21.714;2023-10-13T00:56:03;16.60;;;9.87;;
43070;SDS011;36278;47.952;21.714;2023-10-13T01:01:04;19.67;;;9.47;;
43070;SDS011;36278;47.952;21.714;2023-10-13T01:06:21;19.85;;;9.75;;
43070;SDS011;36278;47.952;21.714;2023-10-13T01:09:00;24.63;;;9.83;;
43070;SDS011;36278;47.952;21.714;2023-10-13T01:11:44;19.23;;;10.20;;
43070;SDS011;36278;47.952;21.714;2023-10-13T01:14:11;27.83;;;10.53;;
43070;SDS011;36278;47.952;21.714;2023-10-13T01:16:38;23.57;;;10.23;;
43070;SDS011;36278;47.952;21.714;2023-10-13T01:19:18;16.10;;;9.47;;
43070;SDS011;36278;47.952;21.714;2023-10-13T01:21:50;17.43;;;10.10;;
43070;SDS011;36278;47.952;21.714;2023-10-13T01:24:21;15.23;;;9.80;;
43070;SDS011;36278;47.952;21.714;2023-10-13T01:26:49;20.70;;;10.30;;
43070;SDS011;36278;47.952;21.714;2023-10-13T01:29:16;28.03;;;10.97;;
43070;SDS011;36278;47.952;21.714;2023-10-13T01:31:44;17.33;;;10.07;;
43070;SDS011;36278;47.952;21.714;2023-10-13T01:34:18;21.03;;;11.13;;
43070;SDS011;36278;47.952;21.714;2023-10-13T01:36:55;16.60;;;10.40;;
43070;SDS011;36278;47.952;21.714;2023-10-13T01:39:22;23.00;;;10.57;;
43070;SDS011;36278;47.952;21.714;2023-10-13T01:41:54;17.10;;;9.93;;
43070;SDS011;36278;47.952;21.714;2023-10-13T01:44:23;25.90;;;11.07;;
43070;SDS011;36278;47.952;21.714;2023-10-13T01:46:55;18.05;;;10.80;;
43070;SDS011;36278;47.952;21.714;2023-10-13T01:49:25;19.80;;;10.47;;
43070;SDS011;36278;47.952;21.714;2023-10-13T01:51:50;17.40;;;11.17;;
43070;SDS011;36278;47.952;21.714;2023-10-13T01:54:16;17.53;;;11.03;;
43070;SDS011;36278;47.952;21.714;2023-10-13T01:56:41;22.87;;;11.03;;
43070;SDS011;36278;47.952;21.714;2023-10-13T01:59:10;19.03;;;11.17;;
43070;SDS011;36278;47.952;21.714;2023-10-13T02:01:36;19.90;;;11.20;;
43070;SDS011;36278;47.952;21.714;2023-10-13T02:04:02;15.20;;;11.60;;
43070;SDS011;36278;47.952;21.714;2023-10-13T02:06:32;23.00;;;11.37;;
43070;SDS011;36278;47.952;21.714;2023-10-13T02:09:05;18.40;;;11.77;;
43070;SDS011;36278;47.952;21.714;2023-10-13T02:11:38;20.53;;;11.70;;
43070;SDS011;36278;47.952;21.714;2023-10-13T02:14:05;24.70;;;12.73;;
43070;SDS011;36278;47.952;21.714;2023-10-13T02:16:30;21.03;;;11.97;;
43070;SDS011;36278;47.952;21.714;2023-10-13T02:18:56;24.10;;;13.00;;
43070;SDS011;36278;47.952;21.714;2023-10-13T02:21:22;22.63;;;12.43;;
43070;SDS011;36278;47.952;21.714;2023-10-13T02:23:56;20.07;;;11.83;;
43070;SDS011;36278;47.952;21.714;2023-10-13T02:26:25;19.13;;;11.63;;
43070;SDS011;36278;47.952;21.714;2023-10-13T02:29:00;18.02;;;12.05;;
43070;SDS011;36278;47.952;21.714;2023-10-13T02:31:33;19.50;;;11.83;;
43070;SDS011;36278;47.952;21.714;2023-10-13T02:34:00;17.27;;;12.07;;
43070;SDS011;36278;47.952;21.714;2023-10-13T02:36:31;23.50;;;12.30;;
43070;SDS011;36278;47.952;21.714;2023-10-13T02:39:09;23.30;;;12.77;;
43070;SDS011;36278;47.952;21.714;2023-10-13T02:41:35;21.10;;;12.90;;
43070;SDS011;36278;47.952;21.714;2023-10-13T02:44:03;19.00;;;12.53;;
43070;SDS011;36278;47.952;21.714;2023-10-13T02:46:35;16.35;;;12.30;;
43070;SDS011;36278;47.952;21.714;2023-10-13T02:49:05;27.10;;;12.43;;
43070;SDS011;36278;47.952;21.714;2023-10-13T02:51:37;16.67;;;11.90;;
43070;SDS011;36278;47.952;21.714;2023-10-13T02:54:07;16.07;;;10.80;;
43070;SDS011;36278;47.952;21.714;2023-10-13T02:56:36;15.67;;;10.60;;
43070;SDS011;36278;47.952;21.714;2023-10-13T02:59:03;16.33;;;11.60;;
43070;SDS011;36278;47.952;21.714;2023-10-13T03:01:32;23.37;;;11.90;;
43070;SDS011;36278;47.952;21.714;2023-10-13T03:04:00;17.33;;;12.23;;
43070;SDS011;36278;47.952;21.714;2023-10-13T03:06:27;15.50;;;11.50;;
43070;SDS011;36278;47.952;21.714;2023-10-13T03:08:59;21.43;;;11.63;;
43070;SDS011;36278;47.952;21.714;2023-10-13T03:11:42;21.23;;;11.60;;
43070;SDS011;36278;47.952;21.714;2023-10-13T03:14:13;20.13;;;12.57;;
43070;SDS011;36278;47.952;21.714;2023-10-13T03:16:48;17.27;;;11.43;;
43070;SDS011;36278;47.952;21.714;2023-10-13T03:19:15;23.37;;;12.50;;
43070;SDS011;36278;47.952;21.714;2023-10-13T03:21:44;16.67;;;11.00;;
43070;SDS011;36278;47.952;21.714;2023-10-13T03:24:11;20.80;;;12.47;;
43070;SDS011;36278;47.952;21.714;2023-10-13T03:26:38;20.07;;;12.30;;
43070;SDS011;36278;47.952;21.714;2023-10-13T03:29:09;21.60;;;12.27;;
43070;SDS011;36278;47.952;21.714;2023-10-13T03:31:39;15.90;;;11.80;;
43070;SDS011;36278;47.952;21.714;2023-10-13T03:34:05;21.10;;;12.23;;
43070;SDS011;36278;47.952;21.714;2023-10-13T03:36:37;18.17;;;12.60;;
43070;SDS011;36278;47.952;21.714;2023-10-13T03:39:21;19.67;;;11.63;;
43070;SDS011;36278;47.952;21.714;2023-10-13T03:41:55;21.38;;;11.55;;
43070;SDS011;36278;47.952;21.714;2023-10-13T03:44:22;21.93;;;12.60;;
43070;SDS011;36278;47.952;21.714;2023-10-13T03:46:48;25.17;;;12.60;;
43070;SDS011;36278;47.952;21.714;2023-10-13T03:49:16;23.23;;;12.13;;
43070;SDS011;36278;47.952;21.714;2023-10-13T03:51:49;20.08;;;12.40;;
43070;SDS011;36278;47.952;21.714;2023-10-13T03:54:16;16.57;;;11.53;;
43070;SDS011;36278;47.952;21.714;2023-10-13T03:56:42;15.70;;;12.10;;
43070;SDS011;36278;47.952;21.714;2023-10-13T03:59:09;17.63;;;11.93;;
43070;SDS011;36278;47.952;21.714;2023-10-13T04:01:43;18.97;;;12.23;;
43070;SDS011;36278;47.952;21.714;2023-10-13T04:04:15;17.73;;;12.73;;
43070;SDS011;36278;47.952;21.714;2023-10-13T04:07:01;21.83;;;12.60;;
43070;SDS011;36278;47.952;21.714;2023-10-13T04:09:30;18.87;;;12.97;;
43070;SDS011;36278;47.952;21.714;2023-10-13T04:12:00;21.50;;;12.97;;
43070;SDS011;36278;47.952;21.714;2023-10-13T04:14:34;23.93;;;11.97;;
43070;SDS011;36278;47.952;21.714;2023-10-13T04:17:19;18.50;;;12.63;;
43070;SDS011;36278;47.952;21.714;2023-10-13T04:19:49;21.47;;;12.77;;
43070;SDS011;36278;47.952;21.714;2023-10-13T04:25:21;21.23;;;12.87;;
43070;SDS011;36278;47.952;21.714;2023-10-13T04:28:04;18.43;;;12.87;;
43070;SDS011;36278;47.952;21.714;2023-10-13T04:30:41;18.67;;;12.83;;
43070;SDS011;36278;47.952;21.714;2023-10-13T04:36:06;18.23;;;13.10;;
43070;SDS011;36278;47.952;21.714;2023-10-13T04:38:56;19.63;;;12.97;;
43070;SDS011;36278;47.952;21.714;2023-10-13T04:44:12;21.43;;;12.40;;
43070;SDS011;36278;47.952;21.714;2023-10-13T04:46:55;19.17;;;13.03;;
43070;SDS011;36278;47.952;21.714;2023-10-13T04:49:32;19.07;;;12.77;;
43070;SDS011;36278;47.952;21.714;2023-10-13T04:52:00;20.20;;;13.70;;
43070;SDS011;36278;47.952;21.714;2023-10-13T04:54:39;22.83;;;13.20;;
43070;SDS011;36278;47.952;21.714;2023-10-13T04:57:15;23.13;;;13.60;;
43070;SDS011;36278;47.952;21.714;2023-10-13T04:59:47;18.43;;;12.90;;
43070;SDS011;36278;47.952;21.714;2023-10-13T05:02:32;21.13;;;13.57;;
43070;SDS011;36278;47.952;21.714;2023-10-13T05:05:08;22.70;;;13.95;;
43070;SDS011;36278;47.952;21.714;2023-10-13T05:07:46;17.13;;;13.17;;
43070;SDS011;36278;47.952;21.714;2023-10-13T05:10:31;19.43;;;13.20;;
43070;SDS011;36278;47.952;21.714;2023-10-13T05:13:16;22.57;;;16.07;;
43070;SDS011;36278;47.952;21.714;2023-10-13T05:16:00;22.37;;;14.27;;
43070;SDS011;36278;47.952;21.714;2023-10-13T05:18:44;20.07;;;14.13;;
43070;SDS011;36278;47.952;21.714;2023-10-13T05:21:28;24.67;;;14.23;;
43070;SDS011;36278;47.952;21.714;2023-10-13T05:24:13;25.80;;;13.77;;
43070;SDS011;36278;47.952;21.714;2023-10-13T05:26:57;21.03;;;13.43;;
43070;SDS011;36278;47.952;21.714;2023-10-13T05:29:41;24.10;;;13.90;;
43070;SDS011;36278;47.952;21.714;2023-10-13T05:32:27;19.43;;;13.33;;
43070;SDS011;36278;47.952;21.714;2023-10-13T05:35:11;18.10;;;13.17;;
43070;SDS011;36278;47.952;21.714;2023-10-13T05:37:55;18.97;;;13.37;;
43070;SDS011;36278;47.952;21.714;2023-10-13T05:40:40;20.43;;;13.83;;
43070;SDS011;36278;47.952;21.714;2023-10-13T05:43:34;18.73;;;13.40;;
43070;SDS011;36278;47.952;21.714;2023-10-13T05:46:18;21.40;;;13.57;;
43070;SDS011;36278;47.952;21.714;2023-10-13T05:48:53;19.83;;;15.00;;
43070;SDS011;36278;47.952;21.714;2023-10-13T05:51:31;25.67;;;14.02;;
43070;SDS011;36278;47.952;21.714;2023-10-13T05:54:12;21.17;;;14.07;;
43070;SDS011;36278;47.952;21.714;2023-10-13T05:56:48;17.77;;;13.47;;
43070;SDS011;36278;47.952;21.714;2023-10-13T05:59:34;18.33;;;12.63;;
43070;SDS011;36278;47.952;21.714;2023-10-13T06:02:20;20.07;;;13.57;;
43070;SDS011;36278;47.952;21.714;2023-10-13T06:05:08;20.17;;;13.90;;
43070;SDS011;36278;47.952;21.714;2023-10-13T06:07:53;20.00;;;14.07;;
43070;SDS011;36278;47.952;21.714;2023-10-13T06:10:38;20.20;;;13.63;;
43070;SDS011;36278;47.952;21.714;2023-10-13T06:13:23;22.40;;;14.03;;
43070;SDS011;36278;47.952;21.714;2023-10-13T06:16:07;21.03;;;13.60;;
43070;SDS011;36278;47.952;21.714;2023-10-13T06:18:56;22.83;;;13.53;;
43070;SDS011;36278;47.952;21.714;2023-10-13T06:21:40;21.80;;;13.77;;
43070;SDS011;36278;47.952;21.714;2023-10-13T06:24:24;20.57;;;12.60;;
43070;SDS011;36278;47.952;21.714;2023-10-13T06:27:08;19.93;;;13.17;;
43070;SDS011;36278;47.952;21.714;2023-10-13T06:29:53;22.67;;;12.90;;
43070;SDS011;36278;47.952;21.714;2023-10-13T06:32:19;18.13;;;13.47;;
43070;SDS011;36278;47.952;21.714;2023-10-13T06:34:45;18.73;;;13.17;;
43070;SDS011;36278;47.952;21.714;2023-10-13T06:37:11;22.23;;;14.77;;
43070;SDS011;36278;47.952;21.714;2023-10-13T06:39:52;24.17;;;15.80;;
43070;SDS011;36278;47.952;21.714;2023-10-13T06:42:28;26.43;;;15.93;;
43070;SDS011;36278;47.952;21.714;2023-10-13T06:44:54;28.77;;;16.77;;
43070;SDS011;36278;47.952;21.714;2023-10-13T06:47:21;36.63;;;17.50;;
43070;SDS011;36278;47.952;21.714;2023-10-13T06:49:48;30.30;;;17.03;;
43070;SDS011;36278;47.952;21.714;2023-10-13T06:52:16;22.33;;;16.13;;
43070;SDS011;36278;47.952;21.714;2023-10-13T06:54:42;21.97;;;16.37;;
43070;SDS011;36278;47.952;21.714;2023-10-13T06:57:08;23.57;;;14.57;;
43070;SDS011;36278;47.952;21.714;2023-10-13T06:59:42;23.30;;;15.37;;
43070;SDS011;36278;47.952;21.714;2023-10-13T07:02:08;23.80;;;15.40;;
43070;SDS011;36278;47.952;21.714;2023-10-13T07:04:37;19.30;;;14.37;;
43070;SDS011;36278;47.952;21.714;2023-10-13T07:07:05;24.30;;;14.47;;
43070;SDS011;36278;47.952;21.714;2023-10-13T07:09:35;21.97;;;14.20;;
43070;SDS011;36278;47.952;21.714;2023-10-13T07:12:02;20.13;;;13.93;;
43070;SDS011;36278;47.952;21.714;2023-10-13T07:14:34;26.00;;;14.43;;
43070;SDS011;36278;47.952;21.714;2023-10-13T07:17:05;19.57;;;13.23;;
43070;SDS011;36278;47.952;21.714;2023-10-13T07:19:32;21.10;;;13.87;;
43070;SDS011;36278;47.952;21.714;2023-10-13T07:21:59;20.27;;;14.03;;
43070;SDS011;36278;47.952;21.714;2023-10-13T07:24:46;25.07;;;14.10;;
43070;SDS011;36278;47.952;21.714;2023-10-13T07:27:20;23.27;;;13.47;;
43070;SDS011;36278;47.952;21.714;2023-10-13T07:29:50;21.13;;;13.97;;
43070;SDS011;36278;47.952;21.714;2023-10-13T07:32:35;20.30;;;13.13;;
43070;SDS011;36278;47.952;21.714;2023-10-13T07:35:01;22.23;;;13.93;;
43070;SDS011;36278;47.952;21.714;2023-10-13T07:37:30;19.97;;;13.50;;
43070;SDS011;36278;47.952;21.714;2023-10-13T07:39:57;18.27;;;12.90;;
43070;SDS011;36278;47.952;21.714;2023-10-13T07:42:26;19.07;;;13.20;;
43070;SDS011;36278;47.952;21.714;2023-10-13T07:45:04;22.43;;;13.90;;
43070;SDS011;36278;47.952;21.714;2023-10-13T07:47:31;25.23;;;13.13;;
43070;SDS011;36278;47.952;21.714;2023-10-13T07:49:58;23.43;;;13.20;;
43070;SDS011;36278;47.952;21.714;2023-10-13T07:52:23;20.67;;;13.40;;
43070;SDS011;36278;47.952;21.714;2023-10-13T07:54:51;17.63;;;13.33;;
43070;SDS011;36278;47.952;21.714;2023-10-13T07:57:52;21.60;;;13.90;;
43070;SDS011;36278;47.952;21.714;2023-10-13T08:00:22;19.77;;;13.07;;
43070;SDS011;36278;47.952;21.714;2023-10-13T08:03:04;24.35;;;13.07;;
43070;SDS011;36278;47.952;21.714;2023-10-13T08:05:51;18.53;;;12.40;;
43070;SDS011;36278;47.952;21.714;2023-10-13T08:08:24;21.83;;;13.20;;
43070;SDS011;36278;47.952;21.714;2023-10-13T08:10:51;31.40;;;13.03;;
43070;SDS011;36278;47.952;21.714;2023-10-13T08:13:21;26.80;;;12.60;;
43070;SDS011;36278;47.952;21.714;2023-10-13T08:15:47;20.88;;;12.73;;
43070;SDS011;36278;47.952;21.714;2023-10-13T08:18:13;26.07;;;13.23;;
43070;SDS011;36278;47.952;21.714;2023-10-13T08:21:05;20.92;;;12.90;;
43070;SDS011;36278;47.952;21.714;2023-10-13T08:23:31;20.23;;;12.77;;
43070;SDS011;36278;47.952;21.714;2023-10-13T08:26:36;22.80;;;12.05;;
43070;SDS011;36278;47.952;21.714;2023-10-13T08:29:02;22.00;;;11.95;;
43070;SDS011;36278;47.952;21.714;2023-10-13T08:31:46;19.95;;;10.57;;
43070;SDS011;36278;47.952;21.714;2023-10-13T08:34:34;26.15;;;11.48;;
43070;SDS011;36278;47.952;21.714;2023-10-13T08:37:09;22.80;;;11.70;;
43070;SDS011;36278;47.952;21.714;2023-10-13T08:39:58;20.42;;;11.63;;
43070;SDS011;36278;47.952;21.714;2023-10-13T08:45:10;17.40;;;11.43;;
43070;SDS011;36278;47.952;21.714;2023-10-13T08:48:06;26.15;;;11.38;;
43070;SDS011;36278;47.952;21.714;2023-10-13T08:50:49;16.88;;;11.43;;
43070;SDS011;36278;47.952;21.714;2023-10-13T08:58:37;18.52;;;11.57;;
43070;SDS011;36278;47.952;21.714;2023-10-13T09:01:18;20.85;;;10.95;;
43070;SDS011;36278;47.952;21.714;2023-10-13T09:04:05;17.90;;;10.95;;
43070;SDS011;36278;47.952;21.714;2023-10-13T09:07:00;18.08;;;11.32;;
43070;SDS011;36278;47.952;21.714;2023-10-13T09:09:30;17.75;;;11.38;;
43070;SDS011;36278;47.952;21.714;2023-10-13T09:12:12;15.13;;;10.27;;
43070;SDS011;36278;47.952;21.714;2023-10-13T09:14:42;18.20;;;10.48;;
43070;SDS011;36278;47.952;21.714;2023-10-13T09:17:10;17.38;;;10.82;;
43070;SDS011;36278;47.952;21.714;2023-10-13T09:20:11;23.95;;;11.85;;
43070;SDS011;36278;47.952;21.714;2023-10-13T09:22:51;18.20;;;10.70;;
43070;SDS011;36278;47.952;21.714;2023-10-13T09:25:26;19.75;;;10.70;;
43070;SDS011;36278;47.952;21.714;2023-10-13T09:27:58;18.87;;;10.50;;
43070;SDS011;36278;47.952;21.714;2023-10-13T09:30:26;17.15;;;10.02;;
43070;SDS011;36278;47.952;21.714;2023-10-13T09:33:03;17.85;;;9.77;;
43070;SDS011;36278;47.952;21.714;2023-10-13T09:35:30;16.27;;;10.82;;
43070;SDS011;36278;47.952;21.714;2023-10-13T09:37:59;21.95;;;9.80;;
43070;SDS011;36278;47.952;21.714;2023-10-13T09:40:29;17.38;;;9.27;;
43070;SDS011;36278;47.952;21.714;2023-10-13T09:42:58;17.23;;;8.93;;
43070;SDS011;36278;47.952;21.714;2023-10-13T09:45:31;16.80;;;10.00;;
43070;SDS011;36278;47.952;21.714;2023-10-13T09:48:29;18.10;;;10.05;;
43070;SDS011;36278;47.952;21.714;2023-10-13T09:51:01;17.10;;;8.80;;
43070;SDS011;36278;47.952;21.714;2023-10-13T09:53:30;17.75;;;8.32;;
43070;SDS011;36278;47.952;21.714;2023-10-13T09:58:41;12.73;;;7.05;;
43070;SDS011;36278;47.952;21.714;2023-10-13T10:01:14;13.75;;;7.72;;
43070;SDS011;36278;47.952;21.714;2023-10-13T10:03:50;12.70;;;7.25;;
43070;SDS011;36278;47.952;21.714;2023-10-13T10:06:23;14.32;;;6.45;;
43070;SDS011;36278;47.952;21.714;2023-10-13T10:09:13;11.45;;;6.85;;
43070;SDS011;36278;47.952;21.714;2023-10-13T10:17:26;13.00;;;5.40;;
43070;SDS011;36278;47.952;21.714;2023-10-13T10:19:55;11.65;;;5.75;;
43070;SDS011;36278;47.952;21.714;2023-10-13T10:22:30;9.18;;;5.80;;
43070;SDS011;36278;47.952;21.714;2023-10-13T10:25:05;14.75;;;7.57;;
43070;SDS011;36278;47.952;21.714;2023-10-13T10:27:57;10.13;;;6.65;;
43070;SDS011;36278;47.952;21.714;2023-10-13T10:30:25;13.32;;;7.15;;
43070;SDS011;36278;47.952;21.714;2023-10-13T10:32:53;15.98;;;7.05;;
43070;SDS011;36278;47.952;21.714;2023-10-13T10:35:24;16.92;;;7.53;;
43070;SDS011;36278;47.952;21.714;2023-10-13T10:38:13;14.73;;;8.00;;
43070;SDS011;36278;47.952;21.714;2023-10-13T10:45:52;14.50;;;8.05;;
43070;SDS011;36278;47.952;21.714;2023-10-13T10:48:18;15.10;;;8.02;;
43070;SDS011;36278;47.952;21.714;2023-10-13T10:50:54;15.02;;;7.78;;
43070;SDS011;36278;47.952;21.714;2023-10-13T10:53:23;15.70;;;7.25;;
43070;SDS011;36278;47.952;21.714;2023-10-13T10:56:05;16.52;;;8.02;;
43070;SDS011;36278;47.952;21.714;2023-10-13T10:58:48;16.45;;;7.93;;
43070;SDS011;36278;47.952;21.714;2023-10-13T11:01:20;13.52;;;7.13;;
43070;SDS011;36278;47.952;21.714;2023-10-13T11:03:54;11.30;;;5.80;;
43070;SDS011;36278;47.952;21.714;2023-10-13T11:06:34;10.40;;;6.38;;
43070;SDS011;36278;47.952;21.714;2023-10-13T11:09:07;16.25;;;7.22;;
43070;SDS011;36278;47.952;21.714;2023-10-13T11:11:52;15.85;;;7.38;;
43070;SDS011;36278;47.952;21.714;2023-10-13T11:14:25;16.02;;;8.02;;
43070;SDS011;36278;47.952;21.714;2023-10-13T11:16:56;14.30;;;8.10;;
43070;SDS011;36278;47.952;21.714;2023-10-13T11:19:36;18.67;;;7.68;;
43070;SDS011;36278;47.952;21.714;2023-10-13T11:25:07;14.32;;;7.07;;
43070;SDS011;36278;47.952;21.714;2023-10-13T11:27:39;23.67;;;7.90;;
43070;SDS011;36278;47.952;21.714;2023-10-13T11:30:10;18.00;;;7.05;;
43070;SDS011;36278;47.952;21.714;2023-10-13T11:32:41;16.15;;;6.03;;
43070;SDS011;36278;47.952;21.714;2023-10-13T11:35:10;11.05;;;5.68;;
43070;SDS011;36278;47.952;21.714;2023-10-13T11:37:49;8.48;;;5.47;;
43070;SDS011;36278;47.952;21.714;2023-10-13T11:40:34;12.60;;;6.15;;
43070;SDS011;36278;47.952;21.714;2023-10-13T11:43:09;17.65;;;5.90;;
43070;SDS011;36278;47.952;21.714;2023-10-13T11:45:49;14.13;;;5.57;;
43070;SDS011;36278;47.952;21.714;2023-10-13T11:48:21;13.43;;;5.93;;
43070;SDS011;36278;47.952;21.714;2023-10-13T11:51:08;15.38;;;5.93;;
43070;SDS011;36278;47.952;21.714;2023-10-13T11:53:42;14.52;;;5.70;;
43070;SDS011;36278;47.952;21.714;2023-10-13T11:56:08;23.38;;;7.03;;
43070;SDS011;36278;47.952;21.714;2023-10-13T11:58:38;12.77;;;5.47;;
43070;SDS011;36278;47.952;21.714;2023-10-13T12:01:04;18.15;;;6.47;;
43070;SDS011;36278;47.952;21.714;2023-10-13T12:03:49;24.25;;;7.28;;
43070;SDS011;36278;47.952;21.714;2023-10-13T12:06:34;13.32;;;6.47;;
43070;SDS011;36278;47.952;21.714;2023-10-13T12:09:00;15.60;;;6.45;;
43070;SDS011;36278;47.952;21.714;2023-10-13T12:11:42;19.55;;;7.15;;
43070;SDS011;36278;47.952;21.714;2023-10-13T12:14:08;15.13;;;6.13;;
43070;SDS011;36278;47.952;21.714;2023-10-13T12:16:50;19.83;;;6.68;;
43070;SDS011;36278;47.952;21.714;2023-10-13T12:19:21;13.43;;;6.35;;
43070;SDS011;36278;47.952;21.714;2023-10-13T12:21:53;17.02;;;7.05;;
43070;SDS011;36278;47.952;21.714;2023-10-13T12:24:27;14.23;;;6.70;;
43070;SDS011;36278;47.952;21.714;2023-10-13T12:27:05;16.38;;;6.80;;
43070;SDS011;36278;47.952;21.714;2023-10-13T12:29:48;15.25;;;7.07;;
43070;SDS011;36278;47.952;21.714;2023-10-13T12:32:17;18.10;;;7.78;;
43070;SDS011;36278;47.952;21.714;2023-10-13T12:34:50;14.93;;;6.97;;
43070;SDS011;36278;47.952;21.714;2023-10-13T12:37:23;17.83;;;6.18;;
43070;SDS011;36278;47.952;21.714;2023-10-13T12:40:04;9.50;;;5.00;;
43070;SDS011;36278;47.952;21.714;2023-10-13T12:42:49;9.50;;;4.95;;
43070;SDS011;36278;47.952;21.714;2023-10-13T12:45:37;13.90;;;5.20;;
43070;SDS011;36278;47.952;21.714;2023-10-13T12:48:40;15.57;;;5.50;;
43070;SDS011;36278;47.952;21.714;2023-10-13T12:51:29;13.48;;;5.72;;
43070;SDS011;36278;47.952;21.714;2023-10-13T12:53:58;16.85;;;8.20;;
43070;SDS011;36278;47.952;21.714;2023-10-13T12:56:45;14.55;;;5.85;;
43070;SDS011;36278;47.952;21.714;2023-10-13T12:59:11;16.25;;;5.97;;
43070;SDS011;36278;47.952;21.714;2023-10-13T13:01:40;15.82;;;6.47;;
43070;SDS011;36278;47.952;21.714;2023-10-13T13:04:10;14.35;;;6.88;;
43070;SDS011;36278;47.952;21.714;2023-10-13T13:06:43;12.13;;;6.25;;
43070;SDS011;36278;47.952;21.714;2023-10-13T13:09:09;21.75;;;8.85;;
43070;SDS011;36278;47.952;21.714;2023-10-13T13:11:35;18.42;;;6.22;;
43070;SDS011;36278;47.952;21.714;2023-10-13T13:14:07;13.98;;;6.00;;
43070;SDS011;36278;47.952;21.714;2023-10-13T13:16:33;18.02;;;5.97;;
43070;SDS011;36278;47.952;21.714;2023-10-13T13:18:59;20.55;;;6.35;;
43070;SDS011;36278;47.952;21.714;2023-10-13T13:21:28;13.82;;;6.00;;
43070;SDS011;36278;47.952;21.714;2023-10-13T13:23:54;15.73;;;6.68;;
43070;SDS011;36278;47.952;21.714;2023-10-13T13:26:20;20.52;;;7.25;;
43070;SDS011;36278;47.952;21.714;2023-10-13T13:28:47;16.23;;;6.70;;
43070;SDS011;36278;47.952;21.714;2023-10-13T13:31:17;12.48;;;5.72;;
43070;SDS011;36278;47.952;21.714;2023-10-13T13:33:43;15.40;;;6.57;;
43070;SDS011;36278;47.952;21.714;2023-10-13T13:36:09;12.05;;;6.68;;
43070;SDS011;36278;47.952;21.714;2023-10-13T13:38:39;11.55;;;5.85;;
43070;SDS011;36278;47.952;21.714;2023-10-13T13:41:05;12.40;;;6.20;;
43070;SDS011;36278;47.952;21.714;2023-10-13T13:43:40;14.45;;;7.05;;
43070;SDS011;36278;47.952;21.714;2023-10-13T13:46:19;12.93;;;5.80;;
43070;SDS011;36278;47.952;21.714;2023-10-13T13:48:50;17.08;;;6.32;;
43070;SDS011;36278;47.952;21.714;2023-10-13T13:51:23;18.42;;;7.55;;
43070;SDS011;36278;47.952;21.714;2023-10-13T13:53:52;16.08;;;6.68;;
43070;SDS011;36278;47.952;21.714;2023-10-13T13:56:22;16.70;;;6.35;;
43070;SDS011;36278;47.952;21.714;2023-10-13T13:58:50;19.23;;;6.60;;
43070;SDS011;36278;47.952;21.714;2023-10-13T14:01:18;22.50;;;7.45;;
43070;SDS011;36278;47.952;21.714;2023-10-13T14:03:45;12.88;;;6.43;;
43070;SDS011;36278;47.952;21.714;2023-10-13T14:06:12;14.70;;;6.95;;
43070;SDS011;36278;47.952;21.714;2023-10-13T14:08:46;15.00;;;7.15;;
43070;SDS011;36278;47.952;21.714;2023-10-13T14:11:14;12.90;;;6.28;;
43070;SDS011;36278;47.952;21.714;2023-10-13T14:14:10;17.02;;;7.15;;
43070;SDS011;36278;47.952;21.714;2023-10-13T14:16:59;15.35;;;6.45;;
43070;SDS011;36278;47.952;21.714;2023-10-13T14:19:34;15.45;;;7.50;;
43070;SDS011;36278;47.952;21.714;2023-10-13T14:22:05;14.98;;;6.68;;
43070;SDS011;36278;47.952;21.714;2023-10-13T14:24:32;14.77;;;7.03;;
43070;SDS011;36278;47.952;21.714;2023-10-13T14:27:00;13.05;;;6.53;;
43070;SDS011;36278;47.952;21.714;2023-10-13T14:29:37;12.90;;;6.80;;
43070;SDS011;36278;47.952;21.714;2023-10-13T14:32:10;14.93;;;7.30;;
43070;SDS011;36278;47.952;21.714;2023-10-13T14:34:39;15.57;;;6.20;;
43070;SDS011;36278;47.952;21.714;2023-10-13T14:37:06;18.50;;;7.82;;
43070;SDS011;36278;47.952;21.714;2023-10-13T14:39:32;13.45;;;6.80;;
43070;SDS011;36278;47.952;21.714;2023-10-13T14:42:00;15.75;;;6.53;;
43070;SDS011;36278;47.952;21.714;2023-10-13T14:44:34;15.85;;;7.05;;
43070;SDS011;36278;47.952;21.714;2023-10-13T14:47:00;18.05;;;7.38;;
43070;SDS011;36278;47.952;21.714;2023-10-13T14:49:27;13.10;;;6.72;;
43070;SDS011;36278;47.952;21.714;2023-10-13T14:51:53;14.15;;;6.75;;
43070;SDS011;36278;47.952;21.714;2023-10-13T14:54:20;17.50;;;6.70;;
43070;SDS011;36278;47.952;21.714;2023-10-13T14:56:58;25.00;;;7.50;;
43070;SDS011;36278;47.952;21.714;2023-10-13T14:59:27;14.85;;;6.80;;
43070;SDS011;36278;47.952;21.714;2023-10-13T15:01:53;13.02;;;6.93;;
43070;SDS011;36278;47.952;21.714;2023-10-13T15:04:18;18.75;;;6.90;;
43070;SDS011;36278;47.952;21.714;2023-10-13T15:06:49;18.40;;;7.00;;
43070;SDS011;36278;47.952;21.714;2023-10-13T15:09:15;18.85;;;7.40;;
43070;SDS011;36278;47.952;21.714;2023-10-13T15:11:49;18.05;;;7.57;;
43070;SDS011;36278;47.952;21.714;2023-10-13T15:14:18;11.77;;;7.38;;
43070;SDS011;36278;47.952;21.714;2023-10-13T15:16:48;17.02;;;7.05;;
43070;SDS011;36278;47.952;21.714;2023-10-13T15:19:14;13.55;;;6.90;;
43070;SDS011;36278;47.952;21.714;2023-10-13T15:21:41;14.57;;;7.30;;
43070;SDS011;36278;47.952;21.714;2023-10-13T15:24:08;12.82;;;6.75;;
43070;SDS011;36278;47.952;21.714;2023-10-13T15:26:44;12.88;;;6.72;;
43070;SDS011;36278;47.952;21.714;2023-10-13T15:29:14;19.27;;;7.60;;